Cainhoy, South Carolina
Current Conditions -  °F | °C
As of 5:55 PM on Monday 24 Nov 2014 (Local Time) from KLRO Reporting Station
Scattered Clouds Scattered Clouds  
Wind Chill: 70°   Ceiling: Unl
Heat Index: 70°   Visibility: 5mi
Dew Point: 68°   Wind: 7mph
Humidity: 94%   Direction: 160°SSE
Pressure: 29.93"   Gusts: NA
Location:  32.9577°N, 79.8822°W
Report Text: KLRO 242255Z AUTO 16006KT 5SM FEW032 SCT080 21/20 A2993 RMK AO2 PWINO PNO
Loading
Personal Weather Stations






























Interactive Weather Map New forecast layout! Learn more

10-Day Weather Forecast

Advertisements
Track Severe Weather on mobile